KFDK

Frederick Municipal Airport

Frederick, Maryland, USA
METAR KFDK 230235Z AUTO 16004KT 10SM OVC005 22/22 A3001 RMK AO2 LTG DSNT W
Observed Flight Rules
May-23 @ 02:35 UTC (24 minutes ago) Instrument Flight Rules
Wind Visibility Clouds
160° at 4 knots 10 miles
  • Overcast at 500' AGL
Temperatures Readings
Current 22°C / 72°F
Dewpoint 22°C / 72°F
Humidity 100%
Altimeter 30.01" Hg
Pressure 1016 hPa
Elevation 92
METAR KFDK 230235Z AUTO 16004KT 10SM OVC005 22/22 A3001 RMK AO2 LTG DSNT W
Observed Flight Rules
May-23 @ 02:35 UTC
(24 minutes ago)
IFR
Wind Visibility
160° at 4 knots 10 miles
Clouds
  • Overcast at 500' AGL
Temperature Dewpoint
22°C / 72°F 22°C / 72°F
Humidity Altimeter Pressure
100% 30.01" Hg 1016 hPa